Time;durP1;ratioP1;P1;durP2;ratioP2;P2;SDS_P1;SDS_P2;PMS_P1;PMS_P2;Temp;Humidity;BMP_temperature;BMP_pressure;BME280_temperature;BME280_humidity;BME280_pressure;Samples;Min_cycle;Max_cycle;Signal;HPM_P1;HPM_P2
2021/12/08 00:00:10;;;;;;;79.82;32.28;;;;;;;;;;5003893;28;20461;-43
2021/12/08 00:02:36;;;;;;;71.95;30.98;;;;;;;;;;5005855;28;20068;-43
2021/12/08 00:05:04;;;;;;;70.93;29.83;;;;;;;;;;5007774;28;20046;-44
2021/12/08 00:07:30;;;;;;;65.90;29.02;;;;;;;;;;5008767;28;20080;-45
2021/12/08 00:10:16;;;;;;;72.38;29.30;;;;;;;;;;5008586;28;20685;-44
2021/12/08 00:15:27;;;;;;;71.53;31.38;;;;;;;;;;5008220;28;20057;-44
2021/12/08 00:17:53;;;;;;;79.47;32.33;;;;;;;;;;5009048;28;20116;-46
2021/12/08 00:20:20;;;;;;;69.70;31.10;;;;;;;;;;5008380;28;20030;-45
2021/12/08 00:22:46;;;;;;;71.82;29.65;;;;;;;;;;5009145;28;20030;-42
2021/12/08 00:25:12;;;;;;;64.65;28.67;;;;;;;;;;5005735;28;20025;-44
2021/12/08 00:27:38;;;;;;;70.78;29.80;;;;;;;;;;5009356;28;20440;-44
2021/12/08 00:30:04;;;;;;;70.05;32.03;;;;;;;;;;5005541;28;20034;-43
2021/12/08 00:32:32;;;;;;;75.07;28.80;;;;;;;;;;5005667;28;20049;-44
2021/12/08 00:34:58;;;;;;;66.03;29.23;;;;;;;;;;5007584;28;20129;-44
2021/12/08 00:37:26;;;;;;;62.47;29.45;;;;;;;;;;5009497;28;20026;-44
2021/12/08 00:39:52;;;;;;;66.78;29.80;;;;;;;;;;5008161;28;20500;-45
2021/12/08 00:42:19;;;;;;;64.25;30.08;;;;;;;;;;5008556;28;20022;-44
2021/12/08 00:44:45;;;;;;;66.00;27.30;;;;;;;;;;5006166;28;20708;-46
2021/12/08 00:47:11;;;;;;;61.10;27.35;;;;;;;;;;5008378;28;20660;-43
2021/12/08 00:49:39;;;;;;;69.25;29.35;;;;;;;;;;5002377;28;20068;-42
2021/12/08 00:52:05;;;;;;;71.50;28.98;;;;;;;;;;5007782;28;20049;-45
2021/12/08 00:54:31;;;;;;;66.50;28.75;;;;;;;;;;5005692;28;20052;-44
2021/12/08 00:56:57;;;;;;;65.30;26.23;;;;;;;;;;5008517;28;20109;-44
2021/12/08 00:59:24;;;;;;;61.72;25.60;;;;;;;;;;5005467;28;20045;-45
2021/12/08 01:01:50;;;;;;;60.05;25.83;;;;;;;;;;5007727;28;20456;-49
2021/12/08 01:04:16;;;;;;;60.03;27.02;;;;;;;;;;5006251;28;20437;-43
2021/12/08 01:06:42;;;;;;;64.93;26.40;;;;;;;;;;5008165;28;20049;-44
2021/12/08 01:09:08;;;;;;;53.47;25.35;;;;;;;;;;5003295;28;20105;-44
2021/12/08 01:11:35;;;;;;;60.33;25.90;;;;;;;;;;5008310;28;20038;-44
2021/12/08 01:14:01;;;;;;;59.10;26.90;;;;;;;;;;5005695;28;20068;-43
2021/12/08 01:16:27;;;;;;;62.38;26.13;;;;;;;;;;5003257;28;20484;-43
2021/12/08 01:18:53;;;;;;;58.70;26.70;;;;;;;;;;5004185;28;20033;-43
2021/12/08 01:21:20;;;;;;;67.13;25.55;;;;;;;;;;5007308;28;20033;-43
2021/12/08 01:23:46;;;;;;;54.47;25.60;;;;;;;;;;5008676;28;20037;-42
2021/12/08 01:26:13;;;;;;;58.80;25.83;;;;;;;;;;5008616;28;20061;-43
2021/12/08 01:28:39;;;;;;;60.85;25.48;;;;;;;;;;5005178;28;20030;-43
2021/12/08 01:31:05;;;;;;;59.83;26.17;;;;;;;;;;5001582;28;20037;-43
2021/12/08 01:33:33;;;;;;;55.28;24.17;;;;;;;;;;5006490;28;20034;-45
2021/12/08 01:36:02;;;;;;;54.53;26.88;;;;;;;;;;5004114;28;20041;-43
2021/12/08 01:38:28;;;;;;;58.83;25.65;;;;;;;;;;5003189;28;20076;-44
2021/12/08 01:40:54;;;;;;;57.72;26.98;;;;;;;;;;5008383;28;20498;-45
2021/12/08 01:43:29;;;;;;;61.53;25.23;;;;;;;;;;5008759;28;20030;-43
2021/12/08 01:46:05;;;;;;;60.63;23.13;;;;;;;;;;5000162;28;20461;-46
2021/12/08 01:48:34;;;;;;;58.15;24.30;;;;;;;;;;5006102;28;20537;-47
2021/12/08 01:51:05;;;;;;;59.38;26.65;;;;;;;;;;5009273;28;20033;-44
2021/12/08 01:53:32;;;;;;;51.38;24.80;;;;;;;;;;5008045;28;20022;-47
2021/12/08 01:55:59;;;;;;;55.65;24.33;;;;;;;;;;5008011;28;20038;-45
2021/12/08 01:58:25;;;;;;;49.85;23.00;;;;;;;;;;5008339;28;20041;-43
2021/12/08 02:00:57;;;;;;;50.30;23.55;;;;;;;;;;5007924;28;20033;-43
2021/12/08 02:03:24;;;;;;;50.53;21.63;;;;;;;;;;5007710;28;20416;-45
2021/12/08 02:05:50;;;;;;;53.00;23.00;;;;;;;;;;5008206;28;20073;-44
2021/12/08 02:08:17;;;;;;;55.10;23.45;;;;;;;;;;5008146;28;20055;-46
2021/12/08 02:10:44;;;;;;;53.50;22.20;;;;;;;;;;5006911;28;20388;-44
2021/12/08 02:13:10;;;;;;;49.53;22.67;;;;;;;;;;5005212;28;20026;-43
2021/12/08 02:15:37;;;;;;;48.58;22.42;;;;;;;;;;5008506;28;20076;-44
2021/12/08 02:18:04;;;;;;;55.03;25.08;;;;;;;;;;5008715;28;20034;-43
2021/12/08 02:20:30;;;;;;;48.53;22.33;;;;;;;;;;5008771;28;20076;-46
2021/12/08 02:22:56;;;;;;;47.58;21.55;;;;;;;;;;5007389;28;20022;-44
2021/12/08 02:25:24;;;;;;;50.30;21.95;;;;;;;;;;5008476;28;20032;-45
2021/12/08 02:27:51;;;;;;;44.90;20.45;;;;;;;;;;5011031;28;20060;-43
2021/12/08 02:30:29;;;;;;;44.50;19.77;;;;;;;;;;5011092;28;20624;-44
2021/12/08 02:49:06;;;;;;;43.80;19.45;;;;;;;;;;5006755;28;20060;-44
2021/12/08 02:51:33;;;;;;;40.78;18.40;;;;;;;;;;5024708;28;20025;-47
2021/12/08 02:53:59;;;;;;;42.17;19.42;;;;;;;;;;5007713;28;20109;-48
2021/12/08 02:56:26;;;;;;;43.42;18.67;;;;;;;;;;5009732;28;20061;-46
2021/12/08 02:58:52;;;;;;;41.00;18.25;;;;;;;;;;5008411;28;20489;-45
2021/12/08 03:01:18;;;;;;;42.72;19.05;;;;;;;;;;5010722;28;20377;-48
2021/12/08 03:03:44;;;;;;;42.72;17.55;;;;;;;;;;5009012;28;20061;-47
2021/12/08 03:06:12;;;;;;;41.22;18.30;;;;;;;;;;5011009;28;20025;-47
2021/12/08 03:08:38;;;;;;;38.80;18.13;;;;;;;;;;5008403;28;20021;-46
2021/12/08 03:11:04;;;;;;;35.28;17.15;;;;;;;;;;5011785;28;20029;-46
2021/12/08 03:13:30;;;;;;;32.72;16.40;;;;;;;;;;5009436;28;20018;-46
2021/12/08 03:15:56;;;;;;;32.75;16.25;;;;;;;;;;5008136;28;20041;-46
2021/12/08 03:18:30;;;;;;;32.75;15.95;;;;;;;;;;5010447;28;20021;-47
2021/12/08 03:20:56;;;;;;;39.05;15.95;;;;;;;;;;5009329;28;20048;-48
2021/12/08 03:23:29;;;;;;;33.17;15.60;;;;;;;;;;5011272;28;20450;-47
2021/12/08 03:25:57;;;;;;;31.92;16.65;;;;;;;;;;5010200;28;20501;-49
2021/12/08 03:28:28;;;;;;;30.35;15.55;;;;;;;;;;5010943;28;20014;-46
2021/12/08 03:31:31;;;;;;;32.60;15.95;;;;;;;;;;5009958;28;20074;-47
2021/12/08 03:33:47;;;;;;;36.33;15.90;;;;;;;;;;5004049;28;20057;-46
2021/12/08 03:36:13;;;;;;;33.10;15.93;;;;;;;;;;5010846;28;20033;-46
2021/12/08 03:38:39;;;;;;;30.67;14.73;;;;;;;;;;5008278;28;20057;-46
2021/12/08 03:41:07;;;;;;;31.73;16.48;;;;;;;;;;5007143;28;20022;-46
2021/12/08 03:43:33;;;;;;;29.80;14.57;;;;;;;;;;5011029;28;20021;-47
2021/12/08 03:46:00;;;;;;;36.70;16.60;;;;;;;;;;5009208;28;20030;-47
2021/12/08 03:48:39;;;;;;;30.85;14.38;;;;;;;;;;5015958;28;20582;-48
2021/12/08 03:51:05;;;;;;;31.73;15.55;;;;;;;;;;5010408;28;20322;-46
2021/12/08 03:53:31;;;;;;;28.25;14.10;;;;;;;;;;5010082;28;20514;-48
2021/12/08 03:55:57;;;;;;;24.58;13.60;;;;;;;;;;5008816;28;20084;-47
2021/12/08 03:58:24;;;;;;;30.15;14.77;;;;;;;;;;5010627;28;20114;-47
2021/12/08 04:00:51;;;;;;;27.40;14.43;;;;;;;;;;5005879;28;20029;-46
2021/12/08 04:03:18;;;;;;;28.27;14.20;;;;;;;;;;5007789;28;20114;-48
2021/12/08 04:05:52;;;;;;;30.35;14.57;;;;;;;;;;5005608;28;20069;-48
2021/12/08 04:08:26;;;;;;;31.88;15.20;;;;;;;;;;5005407;28;20023;-48
2021/12/08 04:10:53;;;;;;;31.73;14.35;;;;;;;;;;5005202;28;20062;-47
2021/12/08 04:13:21;;;;;;;28.90;14.48;;;;;;;;;;5004533;28;20102;-47
2021/12/08 04:15:49;;;;;;;35.55;16.13;;;;;;;;;;5003588;28;20054;-46
2021/12/08 04:18:15;;;;;;;29.15;14.50;;;;;;;;;;5009286;28;20068;-48
2021/12/08 04:20:45;;;;;;;33.13;16.98;;;;;;;;;;5007035;28;20135;-48
2021/12/08 04:23:13;;;;;;;30.70;16.08;;;;;;;;;;4996588;28;20057;-47
2021/12/08 04:25:40;;;;;;;30.95;16.40;;;;;;;;;;5002128;28;20373;-47
2021/12/08 04:28:08;;;;;;;34.47;16.48;;;;;;;;;;5004411;28;20468;-48
2021/12/08 04:30:37;;;;;;;35.45;16.98;;;;;;;;;;5010854;28;20341;-48
2021/12/08 04:33:03;;;;;;;34.83;16.75;;;;;;;;;;5010413;28;20021;-46
2021/12/08 04:35:29;;;;;;;36.78;16.85;;;;;;;;;;5006491;28;20311;-46
2021/12/08 04:37:58;;;;;;;32.65;16.88;;;;;;;;;;5010481;28;20030;-46
2021/12/08 04:40:34;;;;;;;35.05;16.50;;;;;;;;;;5006383;28;20033;-47
2021/12/08 04:46:04;;;;;;;40.45;17.15;;;;;;;;;;5003576;28;20613;-48
2021/12/08 04:49:34;;;;;;;33.75;17.00;;;;;;;;;;5009345;28;20029;-46
2021/12/08 04:51:35;;;;;;;32.83;16.75;;;;;;;;;;4993633;28;20041;-46
2021/12/08 05:00:16;;;;;;;39.15;15.82;;;;;;;;;;5010713;28;20129;-46
2021/12/08 05:02:41;;;;;;;27.85;16.27;;;;;;;;;;4994434;28;20393;-47
2021/12/08 05:05:18;;;;;;;30.85;15.70;;;;;;;;;;5004501;28;20037;-47
2021/12/08 05:07:51;;;;;;;44.60;17.48;;;;;;;;;;4997396;28;20041;-46
2021/12/08 05:10:20;;;;;;;36.90;16.63;;;;;;;;;;4998588;28;20038;-46
2021/12/08 05:12:47;;;;;;;31.73;15.73;;;;;;;;;;5010492;28;20724;-45
2021/12/08 05:15:15;;;;;;;28.70;15.45;;;;;;;;;;5003229;28;20527;-45
2021/12/08 05:17:43;;;;;;;36.15;16.73;;;;;;;;;;5007772;28;20466;-46
2021/12/08 05:20:15;;;;;;;37.75;17.77;;;;;;;;;;5007673;28;20030;-45
2021/12/08 05:22:44;;;;;;;25.33;14.00;;;;;;;;;;5003274;28;20053;-45
2021/12/08 05:25:12;;;;;;;27.38;14.60;;;;;;;;;;5007344;28;20036;-47
2021/12/08 05:27:41;;;;;;;28.85;14.60;;;;;;;;;;5007133;28;20480;-46
2021/12/08 05:30:07;;;;;;;27.48;12.88;;;;;;;;;;5002240;28;20034;-46
2021/12/08 05:32:33;;;;;;;27.98;14.15;;;;;;;;;;5008704;28;20078;-45
2021/12/08 05:34:59;;;;;;;30.02;14.93;;;;;;;;;;5007183;28;20117;-46
2021/12/08 05:37:25;;;;;;;29.40;14.13;;;;;;;;;;5008578;28;20102;-46
2021/12/08 05:39:52;;;;;;;28.92;14.05;;;;;;;;;;5009005;28;20057;-45
2021/12/08 05:42:20;;;;;;;28.33;14.15;;;;;;;;;;5015912;28;20454;-44
2021/12/08 05:44:47;;;;;;;24.92;13.57;;;;;;;;;;5011354;28;20057;-45
2021/12/08 05:47:21;;;;;;;27.88;14.60;;;;;;;;;;5024761;28;20030;-44
2021/12/08 05:49:47;;;;;;;29.40;14.82;;;;;;;;;;5027353;28;20026;-45
2021/12/08 05:52:13;;;;;;;28.83;13.95;;;;;;;;;;5025873;28;20053;-45
2021/12/08 05:54:41;;;;;;;21.73;11.90;;;;;;;;;;5021523;28;20052;-45
2021/12/08 05:57:27;;;;;;;23.67;12.82;;;;;;;;;;5025737;28;20118;-44
2021/12/08 05:59:53;;;;;;;24.08;12.35;;;;;;;;;;5024787;28;20043;-45
2021/12/08 06:02:22;;;;;;;23.58;11.48;;;;;;;;;;5029401;28;20052;-45
2021/12/08 06:04:49;;;;;;;25.90;12.38;;;;;;;;;;5031073;28;20049;-42
2021/12/08 06:07:15;;;;;;;25.00;12.60;;;;;;;;;;5028033;28;20458;-42
2021/12/08 06:09:41;;;;;;;19.60;11.30;;;;;;;;;;5031166;28;20091;-43
2021/12/08 06:12:09;;;;;;;21.50;12.07;;;;;;;;;;5021432;28;20584;-43
2021/12/08 06:14:36;;;;;;;23.65;13.32;;;;;;;;;;5032382;28;20030;-43
2021/12/08 06:17:06;;;;;;;21.92;11.38;;;;;;;;;;5027708;28;20037;-42
2021/12/08 06:19:32;;;;;;;20.20;11.65;;;;;;;;;;5027807;28;20506;-42
2021/12/08 06:21:58;;;;;;;19.67;10.63;;;;;;;;;;5031943;28;20029;-43
2021/12/08 06:24:24;;;;;;;22.10;11.65;;;;;;;;;;5032578;28;20436;-44
2021/12/08 06:26:51;;;;;;;21.90;10.32;;;;;;;;;;5029996;28;20053;-44
2021/12/08 06:29:18;;;;;;;21.25;9.68;;;;;;;;;;5029270;28;20448;-47
2021/12/08 06:31:44;;;;;;;16.13;10.23;;;;;;;;;;5029757;28;20381;-43
2021/12/08 06:34:11;;;;;;;20.73;10.13;;;;;;;;;;5025389;28;20029;-45
2021/12/08 06:36:39;;;;;;;20.05;11.32;;;;;;;;;;5029633;28;20071;-44
2021/12/08 06:39:10;;;;;;;20.67;9.90;;;;;;;;;;5029470;28;20069;-42
2021/12/08 06:41:39;;;;;;;21.90;10.82;;;;;;;;;;5028480;28;20073;-44
2021/12/08 06:44:12;;;;;;;24.52;10.52;;;;;;;;;;5031797;28;20043;-43
2021/12/08 06:46:39;;;;;;;21.30;10.77;;;;;;;;;;5028595;28;20021;-43
2021/12/08 06:49:06;;;;;;;19.42;10.32;;;;;;;;;;5024117;28;20044;-45
2021/12/08 06:51:37;;;;;;;14.43;10.07;;;;;;;;;;5026487;28;20579;-44
2021/12/08 06:54:09;;;;;;;19.33;11.27;;;;;;;;;;5030484;28;20060;-44
2021/12/08 06:56:37;;;;;;;22.75;11.07;;;;;;;;;;5024683;28;20056;-45
2021/12/08 06:59:06;;;;;;;18.95;11.45;;;;;;;;;;5028572;28;20033;-44
2021/12/08 07:02:49;;;;;;;16.00;10.07;;;;;;;;;;5027003;28;20029;-44
2021/12/08 07:04:34;;;;;;;22.95;11.57;;;;;;;;;;5001369;28;20125;-46
2021/12/08 07:07:14;;;;;;;16.35;10.23;;;;;;;;;;5028898;28;20436;-45
2021/12/08 07:09:49;;;;;;;18.50;10.52;;;;;;;;;;5028534;28;20049;-45
2021/12/08 07:12:18;;;;;;;19.83;10.48;;;;;;;;;;5024720;28;20053;-45
2021/12/08 07:14:46;;;;;;;20.42;10.68;;;;;;;;;;5028541;28;20136;-46
2021/12/08 07:17:14;;;;;;;19.45;11.40;;;;;;;;;;5028060;28;20029;-46
2021/12/08 07:19:46;;;;;;;17.65;9.93;;;;;;;;;;5025940;28;20519;-44
2021/12/08 07:22:15;;;;;;;17.02;10.27;;;;;;;;;;5026627;28;20026;-45
2021/12/08 07:24:42;;;;;;;19.58;11.85;;;;;;;;;;5031233;28;20017;-45
2021/12/08 07:27:16;;;;;;;18.55;9.68;;;;;;;;;;5025604;28;20073;-45
2021/12/08 07:29:43;;;;;;;17.30;10.10;;;;;;;;;;5026830;28;20080;-45
2021/12/08 07:32:14;;;;;;;20.45;10.65;;;;;;;;;;5028360;28;20017;-44
2021/12/08 07:34:41;;;;;;;17.45;10.25;;;;;;;;;;5026394;28;20052;-46
2021/12/08 07:37:11;;;;;;;17.50;9.75;;;;;;;;;;5029018;28;20021;-45
2021/12/08 07:39:43;;;;;;;20.48;9.93;;;;;;;;;;5021659;28;20036;-45
2021/12/08 07:42:15;;;;;;;18.05;9.77;;;;;;;;;;5022294;28;20045;-44
2021/12/08 07:44:41;;;;;;;18.92;9.80;;;;;;;;;;5030913;28;20025;-45
2021/12/08 07:47:09;;;;;;;15.00;9.30;;;;;;;;;;5026497;28;21362;-45
2021/12/08 07:49:41;;;;;;;16.05;9.88;;;;;;;;;;5026478;28;20045;-45
2021/12/08 07:52:11;;;;;;;21.85;9.48;;;;;;;;;;5019786;28;20548;-45
2021/12/08 07:54:38;;;;;;;18.98;10.50;;;;;;;;;;5027829;28;20118;-45
2021/12/08 07:57:06;;;;;;;21.10;10.80;;;;;;;;;;5027473;28;20131;-45
2021/12/08 07:59:35;;;;;;;19.80;10.25;;;;;;;;;;5030244;28;20057;-44
2021/12/08 08:02:07;;;;;;;18.67;10.13;;;;;;;;;;5020741;28;20451;-46
2021/12/08 08:04:35;;;;;;;20.10;10.25;;;;;;;;;;5023068;28;20021;-46
2021/12/08 08:07:01;;;;;;;21.23;10.75;;;;;;;;;;5010522;28;20033;-46
2021/12/08 08:09:29;;;;;;;16.45;9.70;;;;;;;;;;4996479;28;20041;-46
2021/12/08 08:11:58;;;;;;;17.38;9.75;;;;;;;;;;5010492;28;20112;-46
2021/12/08 08:14:27;;;;;;;16.90;11.00;;;;;;;;;;5015780;28;20045;-45
2021/12/08 08:16:56;;;;;;;18.25;10.00;;;;;;;;;;5018056;28;20511;-46
2021/12/08 08:19:27;;;;;;;17.88;9.77;;;;;;;;;;5013119;28;20469;-45
2021/12/08 08:21:54;;;;;;;21.70;10.77;;;;;;;;;;5010896;28;20614;-45
2021/12/08 08:24:20;;;;;;;18.40;10.23;;;;;;;;;;5010752;28;20048;-39
2021/12/08 08:26:48;;;;;;;20.40;10.55;;;;;;;;;;5010962;28;20108;-39
2021/12/08 08:29:14;;;;;;;15.55;8.98;;;;;;;;;;5010967;28;20033;-39
2021/12/08 08:31:46;;;;;;;21.42;10.43;;;;;;;;;;5012286;28;20092;-39
2021/12/08 08:34:13;;;;;;;14.75;8.95;;;;;;;;;;5009509;28;20133;-39
2021/12/08 08:36:41;;;;;;;20.95;9.90;;;;;;;;;;5033611;23;20041;-38
2021/12/08 08:39:12;;;;;;;19.02;9.10;;;;;;;;;;5012009;28;20034;-38
2021/12/08 08:41:41;;;;;;;17.77;9.18;;;;;;;;;;5008531;28;20404;-38
2021/12/08 08:44:10;;;;;;;15.10;9.70;;;;;;;;;;5010331;28;20033;-38
2021/12/08 08:46:38;;;;;;;18.25;10.50;;;;;;;;;;5001371;28;20048;-38
2021/12/08 08:49:10;;;;;;;17.85;10.20;;;;;;;;;;4994538;28;20025;-37
2021/12/08 08:51:38;;;;;;;15.80;9.10;;;;;;;;;;4991094;28;20034;-38
2021/12/08 08:54:07;;;;;;;15.70;9.38;;;;;;;;;;4991431;28;20039;-37
2021/12/08 08:56:40;;;;;;;15.43;8.15;;;;;;;;;;4992351;28;20030;-37
2021/12/08 08:59:10;;;;;;;17.17;9.48;;;;;;;;;;4998916;28;20046;-37
2021/12/08 09:01:39;;;;;;;21.60;9.13;;;;;;;;;;4990692;28;20508;-37
2021/12/08 09:04:10;;;;;;;15.27;8.55;;;;;;;;;;4991694;28;20034;-37
2021/12/08 09:06:38;;;;;;;14.82;9.60;;;;;;;;;;4986674;28;20062;-37
2021/12/08 09:09:07;;;;;;;14.80;9.60;;;;;;;;;;4991691;28;20080;-37
2021/12/08 09:11:35;;;;;;;13.48;8.90;;;;;;;;;;4990105;28;20081;-37
2021/12/08 09:14:04;;;;;;;15.60;8.80;;;;;;;;;;4991406;28;20069;-37
2021/12/08 09:16:33;;;;;;;22.05;9.93;;;;;;;;;;4991745;28;20054;-38
2021/12/08 09:19:04;;;;;;;16.92;9.55;;;;;;;;;;4991751;28;20030;-37
2021/12/08 09:21:55;;;;;;;14.30;9.50;;;;;;;;;;5005155;28;20112;-38
2021/12/08 09:24:33;;;;;;;14.40;8.23;;;;;;;;;;4991296;28;20235;-37
2021/12/08 09:26:59;;;;;;;15.27;8.68;;;;;;;;;;4991169;28;20050;-37
2021/12/08 09:29:28;;;;;;;15.52;8.90;;;;;;;;;;4991033;28;20528;-37
2021/12/08 09:31:56;;;;;;;18.55;8.80;;;;;;;;;;4990590;28;20113;-37
2021/12/08 09:34:28;;;;;;;14.95;8.27;;;;;;;;;;4991596;28;20028;-37
2021/12/08 09:36:56;;;;;;;14.68;8.27;;;;;;;;;;4999565;28;20044;-37
2021/12/08 09:39:25;;;;;;;16.13;9.35;;;;;;;;;;4998211;28;20063;-37
2021/12/08 09:41:54;;;;;;;13.70;9.27;;;;;;;;;;4994663;28;20100;-37
2021/12/08 09:44:22;;;;;;;14.88;9.75;;;;;;;;;;4995583;28;20113;-38
2021/12/08 09:46:49;;;;;;;17.88;8.77;;;;;;;;;;4994284;28;20029;-37
2021/12/08 09:49:17;;;;;;;15.68;8.48;;;;;;;;;;4993363;28;20022;-38
2021/12/08 09:51:43;;;;;;;17.05;8.88;;;;;;;;;;4994457;28;20469;-37
2021/12/08 09:54:10;;;;;;;16.00;7.97;;;;;;;;;;4993739;28;20057;-38
2021/12/08 09:56:36;;;;;;;19.27;9.70;;;;;;;;;;4992949;28;20054;-37
2021/12/08 09:59:05;;;;;;;17.45;8.40;;;;;;;;;;4994174;28;20026;-37
2021/12/08 10:01:33;;;;;;;15.98;8.48;;;;;;;;;;4983743;28;20030;-37
2021/12/08 10:04:00;;;;;;;14.90;8.48;;;;;;;;;;4983719;28;20019;-37
2021/12/08 10:06:26;;;;;;;17.10;9.18;;;;;;;;;;4981518;28;20069;-37
2021/12/08 10:08:57;;;;;;;18.05;7.95;;;;;;;;;;4978134;28;20058;-37
2021/12/08 10:11:24;;;;;;;11.63;7.60;;;;;;;;;;4987094;28;20031;-38
2021/12/08 10:13:50;;;;;;;18.27;8.55;;;;;;;;;;4981651;28;20034;-38
2021/12/08 10:16:16;;;;;;;14.63;7.20;;;;;;;;;;4983705;28;20054;-38
2021/12/08 10:18:43;;;;;;;15.20;8.13;;;;;;;;;;4987453;28;20042;-38
2021/12/08 10:21:09;;;;;;;17.42;8.52;;;;;;;;;;4987104;28;20585;-37
2021/12/08 10:23:37;;;;;;;17.70;8.40;;;;;;;;;;4993008;28;20113;-38
2021/12/08 10:26:08;;;;;;;12.48;8.55;;;;;;;;;;4995774;28;20029;-37
2021/12/08 10:28:38;;;;;;;19.75;7.60;;;;;;;;;;5000432;28;20579;-37
2021/12/08 10:31:19;;;;;;;17.15;8.23;;;;;;;;;;5000709;28;20030;-37
2021/12/08 10:36:33;;;;;;;19.90;8.32;;;;;;;;;;4994199;28;20069;-37
2021/12/08 10:39:00;;;;;;;15.77;8.20;;;;;;;;;;4989165;28;20397;-38
2021/12/08 10:41:26;;;;;;;13.13;7.97;;;;;;;;;;4994215;28;20026;-37
2021/12/08 10:43:59;;;;;;;18.80;8.50;;;;;;;;;;4995190;28;20615;-38
2021/12/08 10:46:33;;;;;;;15.07;8.50;;;;;;;;;;4993054;28;20025;-37
2021/12/08 10:49:12;;;;;;;12.93;8.02;;;;;;;;;;4991884;28;20026;-37
2021/12/08 10:54:30;;;;;;;17.63;7.72;;;;;;;;;;5004877;28;20040;-38
2021/12/08 10:56:57;;;;;;;14.65;8.13;;;;;;;;;;5011875;28;20117;-37
2021/12/08 10:59:43;;;;;;;14.65;8.00;;;;;;;;;;4989089;28;20162;-38
2021/12/08 11:02:29;;;;;;;18.80;7.50;;;;;;;;;;4979716;28;20049;-37
2021/12/08 11:04:55;;;;;;;17.92;8.10;;;;;;;;;;4992744;28;20631;-38
2021/12/08 11:07:21;;;;;;;20.30;9.48;;;;;;;;;;4996538;28;20057;-37
2021/12/08 11:09:47;;;;;;;14.52;8.10;;;;;;;;;;4991021;28;20069;-37
2021/12/08 11:12:13;;;;;;;14.95;7.47;;;;;;;;;;4991330;28;20046;-37
2021/12/08 11:14:46;;;;;;;20.13;9.48;;;;;;;;;;4991342;28;20108;-37
2021/12/08 11:17:29;;;;;;;16.90;8.35;;;;;;;;;;4993789;28;20027;-37
2021/12/08 11:20:15;;;;;;;18.00;9.57;;;;;;;;;;4992215;28;20029;-37
2021/12/08 11:22:41;;;;;;;15.75;7.80;;;;;;;;;;4992766;28;20022;-37
2021/12/08 11:25:07;;;;;;;19.33;8.50;;;;;;;;;;4995833;28;20389;-37
2021/12/08 11:27:34;;;;;;;15.93;7.95;;;;;;;;;;4990084;28;20022;-38
2021/12/08 11:30:11;;;;;;;18.42;8.38;;;;;;;;;;4989854;28;20029;-38
2021/12/08 11:32:37;;;;;;;16.55;8.10;;;;;;;;;;4989485;28;20106;-37
2021/12/08 11:35:03;;;;;;;12.75;7.82;;;;;;;;;;4988877;28;20408;-37
2021/12/08 11:37:34;;;;;;;17.08;8.05;;;;;;;;;;4997076;28;20541;-37
2021/12/08 11:40:02;;;;;;;21.00;8.02;;;;;;;;;;4990919;28;20025;-37
2021/12/08 11:42:31;;;;;;;13.15;7.78;;;;;;;;;;4975336;28;20033;-37
2021/12/08 11:44:58;;;;;;;13.30;7.43;;;;;;;;;;4992083;28;20129;-37
2021/12/08 11:47:27;;;;;;;18.42;9.20;;;;;;;;;;5000598;28;20033;-37
2021/12/08 11:49:58;;;;;;;16.02;8.25;;;;;;;;;;4989225;28;20025;-37
2021/12/08 11:52:29;;;;;;;16.10;7.45;;;;;;;;;;4993458;28;20018;-38
2021/12/08 11:54:56;;;;;;;11.50;7.38;;;;;;;;;;4992756;28;20371;-37
2021/12/08 11:57:27;;;;;;;14.50;6.75;;;;;;;;;;4990587;28;20504;-38
2021/12/08 12:00:21;;;;;;;13.82;7.03;;;;;;;;;;4991707;28;20058;-36
2021/12/08 12:02:53;;;;;;;15.77;7.75;;;;;;;;;;4991345;28;20031;-37
2021/12/08 12:05:21;;;;;;;14.75;7.20;;;;;;;;;;4998654;28;20034;-37
2021/12/08 12:07:48;;;;;;;12.65;7.22;;;;;;;;;;5000567;28;20026;-37
2021/12/08 12:10:15;;;;;;;14.70;6.90;;;;;;;;;;4990909;28;20054;-37
2021/12/08 12:12:42;;;;;;;18.98;7.50;;;;;;;;;;4991166;28;20429;-37
2021/12/08 12:15:08;;;;;;;14.95;7.97;;;;;;;;;;4988428;28;20026;-37
2021/12/08 12:17:35;;;;;;;13.43;7.45;;;;;;;;;;4986121;28;20116;-37
2021/12/08 12:20:04;;;;;;;16.15;7.63;;;;;;;;;;4987610;28;20220;-38
2021/12/08 12:22:42;;;;;;;16.92;8.50;;;;;;;;;;4983145;28;20022;-36
2021/12/08 12:25:24;;;;;;;18.05;8.30;;;;;;;;;;4980441;28;20022;-37
2021/12/08 12:28:09;;;;;;;20.40;8.18;;;;;;;;;;4976770;28;20023;-37
2021/12/08 12:30:46;;;;;;;15.88;7.55;;;;;;;;;;4979028;28;20120;-36
2021/12/08 12:33:17;;;;;;;12.98;7.22;;;;;;;;;;4980885;28;20069;-36
2021/12/08 12:35:49;;;;;;;19.40;8.10;;;;;;;;;;4982928;28;20046;-38
2021/12/08 12:38:15;;;;;;;16.20;7.78;;;;;;;;;;4998316;28;20054;-37
2021/12/08 12:40:46;;;;;;;13.57;7.30;;;;;;;;;;4990557;28;20080;-36
2021/12/08 12:43:22;;;;;;;16.35;7.45;;;;;;;;;;4991088;28;20038;-38
2021/12/08 12:46:01;;;;;;;19.40;9.02;;;;;;;;;;4993431;28;20022;-37
2021/12/08 12:48:29;;;;;;;15.93;7.47;;;;;;;;;;4993761;28;20244;-37
2021/12/08 12:51:00;;;;;;;12.63;8.05;;;;;;;;;;4996140;28;20105;-37
2021/12/08 12:53:31;;;;;;;19.75;7.38;;;;;;;;;;4989513;28;20026;-37
2021/12/08 12:55:57;;;;;;;14.52;7.82;;;;;;;;;;4997902;28;20021;-37
2021/12/08 12:58:23;;;;;;;20.85;8.40;;;;;;;;;;4990148;28;20034;-37
2021/12/08 13:00:51;;;;;;;22.05;8.25;;;;;;;;;;4992923;28;20117;-36
2021/12/08 13:03:44;;;;;;;14.02;8.27;;;;;;;;;;4986350;28;20482;-37
2021/12/08 13:06:11;;;;;;;21.38;10.00;;;;;;;;;;4997535;28;20049;-37
2021/12/08 13:08:39;;;;;;;18.42;9.50;;;;;;;;;;4987298;28;20027;-36
2021/12/08 13:11:33;;;;;;;22.83;9.88;;;;;;;;;;4983940;28;20030;-37
2021/12/08 13:14:01;;;;;;;19.55;8.80;;;;;;;;;;4990830;28;20069;-36
2021/12/08 13:16:27;;;;;;;23.90;10.55;;;;;;;;;;4990160;28;20738;-38
2021/12/08 13:19:00;;;;;;;19.70;9.50;;;;;;;;;;4988079;28;20046;-38
2021/12/08 13:21:48;;;;;;;22.38;11.02;;;;;;;;;;4983342;28;20033;-37
2021/12/08 13:24:33;;;;;;;16.75;10.27;;;;;;;;;;4990776;28;20461;-36
2021/12/08 13:27:00;;;;;;;21.15;10.90;;;;;;;;;;4990360;28;20560;-37
2021/12/08 13:29:26;;;;;;;19.80;10.23;;;;;;;;;;4989563;28;20054;-36
2021/12/08 13:31:59;;;;;;;23.65;12.27;;;;;;;;;;4990882;28;20037;-38
2021/12/08 13:34:32;;;;;;;19.42;11.57;;;;;;;;;;4990873;28;20031;-36
2021/12/08 13:37:12;;;;;;;16.83;9.85;;;;;;;;;;4990558;28;20066;-37
2021/12/08 13:39:41;;;;;;;22.67;10.32;;;;;;;;;;4989829;28;20046;-37
2021/12/08 13:42:11;;;;;;;18.48;11.23;;;;;;;;;;4993282;28;20111;-38
2021/12/08 13:45:00;;;;;;;30.40;12.02;;;;;;;;;;4988733;28;20474;-36
2021/12/08 13:47:36;;;;;;;20.40;11.13;;;;;;;;;;4982930;28;20065;-37
2021/12/08 13:50:10;;;;;;;22.25;10.98;;;;;;;;;;4994309;28;20039;-37
2021/12/08 13:52:37;;;;;;;21.08;10.32;;;;;;;;;;4990246;28;20097;-36
2021/12/08 13:55:09;;;;;;;26.02;12.15;;;;;;;;;;4991543;28;20050;-37
2021/12/08 13:57:43;;;;;;;24.80;11.52;;;;;;;;;;4991168;28;20058;-37
2021/12/08 14:00:12;;;;;;;22.38;12.23;;;;;;;;;;4991334;28;20014;-37
2021/12/08 14:02:39;;;;;;;29.50;12.98;;;;;;;;;;4997783;28;20097;-37
2021/12/08 14:05:10;;;;;;;26.30;11.80;;;;;;;;;;4996970;28;20049;-35
2021/12/08 14:07:38;;;;;;;23.60;12.52;;;;;;;;;;4983654;28;20026;-37
2021/12/08 14:10:09;;;;;;;27.55;12.57;;;;;;;;;;4991374;28;20022;-37
2021/12/08 14:12:41;;;;;;;25.92;12.05;;;;;;;;;;4991382;28;20022;-37
2021/12/08 14:15:07;;;;;;;21.05;11.93;;;;;;;;;;4991669;28;20377;-36
2021/12/08 14:17:33;;;;;;;26.30;12.27;;;;;;;;;;4991383;28;20060;-36
2021/12/08 14:19:59;;;;;;;25.73;11.90;;;;;;;;;;4991239;28;20061;-37
2021/12/08 14:22:40;;;;;;;25.30;13.05;;;;;;;;;;4992498;28;20110;-37
2021/12/08 14:25:07;;;;;;;25.55;13.20;;;;;;;;;;4995867;28;20093;-37
2021/12/08 14:27:33;;;;;;;20.75;12.02;;;;;;;;;;4996078;28;20030;-36
2021/12/08 14:30:00;;;;;;;21.38;13.15;;;;;;;;;;4992958;28;20019;-37
2021/12/08 14:32:26;;;;;;;21.33;12.20;;;;;;;;;;4994546;28;20068;-38
2021/12/08 14:34:52;;;;;;;29.10;13.05;;;;;;;;;;4994798;28;20022;-37
2021/12/08 14:37:18;;;;;;;22.45;12.95;;;;;;;;;;4993750;28;20057;-38
2021/12/08 14:39:50;;;;;;;30.83;15.02;;;;;;;;;;4994071;28;20503;-39
2021/12/08 14:42:25;;;;;;;28.75;13.52;;;;;;;;;;4994720;28;20022;-39
2021/12/08 14:44:55;;;;;;;26.83;14.32;;;;;;;;;;4993812;28;20035;-39
2021/12/08 14:47:25;;;;;;;25.58;13.88;;;;;;;;;;4993298;28;20048;-39
2021/12/08 14:49:54;;;;;;;25.20;14.38;;;;;;;;;;4992253;28;20073;-39
2021/12/08 14:52:21;;;;;;;29.77;14.55;;;;;;;;;;4991927;28;20137;-39
2021/12/08 14:54:49;;;;;;;28.83;13.98;;;;;;;;;;4997101;28;20030;-37
2021/12/08 14:57:17;;;;;;;28.95;14.25;;;;;;;;;;4996430;28;20027;-36
2021/12/08 14:59:48;;;;;;;33.15;14.93;;;;;;;;;;4995717;28;20073;-36
2021/12/08 15:02:15;;;;;;;28.05;15.45;;;;;;;;;;4991651;28;20370;-36
2021/12/08 15:04:41;;;;;;;28.33;14.35;;;;;;;;;;4991791;28;20437;-37
2021/12/08 15:07:08;;;;;;;36.50;16.15;;;;;;;;;;4991746;28;20028;-36